Aktualne dane pomiarowe

Uwaga, wersja testowa! Automatyczne pobieranie danych za pomocą narzędzi lub skryptów to umożliwiających jest zabronione.

Dane meteo z obszaru Polski uzyskane na podstawie depesz SYNOP pobieranych co godzinę z NWS. Najedź myszką na symbol przedstawiony w tabeli, aby uzyskać informacje co do jego znaczenia. Prosimy pamiętać, że to testowa wersja strony, która jeszcze nie jest ukończona. Stworzono również jest krótki FAQ dotyczący korzystania z tej podstrony Anomalie temperatury w chwili obecnej odniesione są do okresu referencyjnego 1951-2016. Okres ten będzie później zmieniony na 1981-2010. Kliknij ikonę aby pobrać plik CSV. Kliknij ikonę aby wygenerować mapę synoptyczną dla danego terminu.

Wybierz Datę:    

        

Mińsk Mazowiecki (12376)

Dane terminowe dla wybranej stacji. Kliknij datę, aby otrzymać dane z tego terminu dla wszystkich stacji.

TemperaturaZachmurzenieWiatrCiśnienieOpadyPogoda
 Data t td wb tx tn tg rh  Nt Nl Cl Cm Ch ws wd g1 g2 wx mslp ppp ch 24h 12h t ww ww w1 w2  
2019-05-19 23:00:00 16.7 16.5 16.5--- 9910.0wx-5wx---1007.9 986.4 -0.7---------
2019-05-19 22:00:00 17.5 16.7 16.9--- 9510.0wx-wx5wx---1008.2 986.8 -0.1---------
2019-05-19 21:00:00 18.1 17.3 17.5--- 9510.0wx-wx5wx---1008.5 987.1 0.2---------
2019-05-19 20:00:00 18.2 16.9 17.3--- 9210.0wx-wx5wx---1008.5 987.1 0.3---------
2019-05-19 19:00:00 16.7 15.9 16.1--- 9510.0wx-wx4wx---1008.4 986.9 -0.3---------
2019-05-19 18:00:00 20.1 15.5 17.0--- 7510.0wxwxwxwx3wx---1008.2 986.9 -0.1---------
2019-05-19 17:00:00 21.5 15.6 17.6--- 6910.0wxwxwxwx4wx---1008.0 986.8 -0.3---------
2019-05-19 16:00:00 22.1 15.7 17.9--- 6710.0wxwxwx5wx---1008.3 987.2 -0.3---------
2019-05-19 15:00:00 21.1 15.7 17.5--- 7170.0wxwxwx6wx---1008.2 987.0 -0.8---------
2019-05-19 14:00:00 20.6 17.2 18.2--- 8110.0wxwxwx5wx---1008.3 987.1 -0.9---------
2019-05-19 12:00:00 19.5 16.2 17.2--- 8110.0wxwxwx5wx---1009.1 987.8 -0.3---------
2019-05-19 11:00:00 17.5 16.9 17.1--- 9610.0wxwxwx4wx---1009.5 988.0 -0.1---------
2019-05-19 10:00:00 17.8 16.7 17.0--- 9310.0wxwxwx5wx---1009.5 988.0 0.1---------
2019-05-19 09:00:00 16.9 16.9 16.9--- 10010.0wxwxwx4wx---1009.6 988.1 0.4---------
2019-05-19 08:00:00 16.8 16.8 16.8--- 10010.0wxwxwxwx3wx---1009.6 988.1 0.0---wx-w1w2--
2019-05-19 07:00:00 16.6 16.6 16.6--- 10010.0wxwxwxwx4wx---1009.4 987.9 -0.2---------
2019-05-19 06:00:00 16.0 16.0 16.0--- 10010.0wxwxwx4wx---1009.3 987.7 -0.4---------
2019-05-19 05:00:00 15.0 15.0 15.0--- 10010.0wxwxwxwx3wx---1009.8 988.1 -0.4---------
2019-05-19 04:00:00 14.7 14.7 14.7--- 10010.0wxwxwxwx2wx---1009.8 988.1 -0.3---wx-w1w2--
2019-05-19 03:00:00 14.6 14.6 14.6--- 1005.0wxwxwxwx3wx---1009.8 988.1 -0.3---wx-w1--
2019-05-19 02:00:00 14.6 14.6 14.6--- 10010.0wxwxwxwx4wx---1010.2 988.5 0.0---wx-w1w2--
2019-05-19 01:00:00 14.9 14.9 14.9--- 10010.0wxwxwxwx4wx---1010.1 988.4 -0.3---wx-w2--
2019-05-19 00:00:00 14.9 14.9 14.9--- 10010.0wx-wx4wx---1010.1 988.4 -0.3---wx---
2019-05-18 23:00:00 14.2 14.2 14.2--- 10010.0wx-wxwx4wx---1010.3 988.5 -0.1---------
2019-05-18 22:00:00 14.3 14.3 14.3--- 10010.0wxwxwxwx3wx---1010.4 988.7 0.0---------
2019-05-18 21:00:00 15.4 15.4 15.4--- 10010.0wx-wx5wx---1010.4 988.7 -0.5---------
2019-05-18 20:00:00 16.1 15.5 15.6--- 9610.0wx-wx2wx---1010.2 988.6 -0.1---------
2019-05-18 19:00:00 16.3 16.3 16.3--- 10010.0wxwxwxwx4wx---1010.3 988.7 0.4---------
2019-05-18 18:00:00 17.5 17.5 17.5--- 10010.0wxwxwxwxwx4wx---1010.7 989.2 0.2---------
2019-05-18 17:00:00 18.6 18.4 18.4--- 9910.0wxwxwxwxwx2wx---1010.1 988.7 -0.1---------
2019-05-18 16:00:00 18.8 18.8 18.8--- 10010.0wxwxwxwxwx5wx---1009.7 988.3 -1.0---wx-w2--
2019-05-18 15:00:00 16.5 16.5 16.5--- 1008.0wxwxwx4wx-10-1010.6 989.0 -0.7---wx-w1w2--
2019-05-18 14:00:00 22.6 17.7 19.2--- 7410.0wxwxwx3wx---1009.9 988.8 -1.2---wx---
2019-05-18 13:00:00 19.7 16.4 17.4--- 8110.0wxwxwxwx3wx-12-1010.6 989.3 -1.1---wx-w1--
2019-05-18 12:00:00 21.5 15.6 17.6--- 6910.0wxwxwxwx4wx---1010.9 989.7 -0.8---------
2019-05-18 11:00:00 20.4 16.8 17.9--- 8010.0wxwxwxwx3wx---1011.3 990.0 -0.4---------
2019-05-18 10:00:00 19.3 18.3 18.6--- 9410.0wxwxwxwx2wx---1011.8 990.4 -0.2---------
2019-05-18 09:00:00 17.1 17.1 17.1--- 10010.0wxwxwxwx2wx---1012.1 990.5 0.0---wx-w2--
2019-05-18 08:00:00 15.0 15.0 15.0--- 1005.0wxwxwx1wx---1012.1 990.4 0.3---wx-w1w2--
2019-05-18 07:00:00 15.0 15.0 15.0--- 1008.0wxwxwx0----1012.3 990.6 0.1---wx-w2--
2019-05-18 06:00:00 15.1 15.1 15.1--- 1001.5wxwxwx3wx---1012.2 990.5 -0.4---wx-w1w2--
2019-05-18 05:00:00 15.1 15.1 15.1--- 1000.8wxwxwx4wx---1011.8 990.1 -0.6---wx-w1w2--
2019-05-18 04:00:00 13.7 13.7 13.7--- 1000.8wx-wx2wx---1012.3 990.5 -0.4---wx-w1w2--
2019-05-18 03:00:00 13.5 13.5 13.5--- 1000.8wx-wx3wx---1012.8 990.9 -0.8---wx-w1w2--
2019-05-18 02:00:00 12.5 12.5 12.5--- 1000.8wx-wx3wx---1012.6 990.7 -0.9---wx---
2019-05-18 01:00:00 13.5 13.5 13.5--- 1005.0wx-wx2wx---1012.8 990.9 -0.8---wx---
2019-05-18 00:00:00 12.1 12.1 12.1--- 10010.0wx-wx4wx---1013.7 991.7 -0.2---------
3.9 ms

 

Print Friendly, PDF & Email